Time;durP1;ratioP1;P1;durP2;ratioP2;P2;SDS_P1;SDS_P2;PMS_P1;PMS_P2;Temp;Humidity;BMP_temperature;BMP_pressure;BME280_temperature;BME280_humidity;BME280_pressure;Samples;Min_cycle;Max_cycle;Signal;HPM_P1;HPM_P2
2024/03/17 00:00:26;;;;;;;7.13;3.42;;;13.60;99.90;;;;;;10017527;28;20057;-73
2024/03/17 00:05:18;;;;;;;6.15;3.13;;;13.50;99.90;;;;;;10015823;28;20022;-72
2024/03/17 00:10:12;;;;;;;8.05;4.30;;;13.50;99.90;;;;;;10021417;28;20030;-72
2024/03/17 00:15:04;;;;;;;5.97;3.70;;;13.50;99.90;;;;;;10017536;28;20032;-72
2024/03/17 00:19:55;;;;;;;8.23;4.07;;;13.40;99.90;;;;;;10017832;28;20046;-72
2024/03/17 00:24:46;;;;;;;6.40;3.67;;;13.40;99.90;;;;;;10030573;28;20087;-72
2024/03/17 00:29:36;;;;;;;8.88;4.00;;;13.30;99.90;;;;;;10020193;28;20120;-73
2024/03/17 00:34:28;;;;;;;7.53;3.63;;;13.30;99.90;;;;;;10024128;28;20105;-73
2024/03/17 00:39:19;;;;;;;4.80;3.72;;;13.10;99.90;;;;;;10028502;28;20630;-72
2024/03/17 00:44:10;;;;;;;4.53;3.72;;;13.00;99.90;;;;;;10033447;28;20072;-72
2024/03/17 00:49:00;;;;;;;7.30;3.88;;;12.90;99.90;;;;;;10040333;28;20233;-72
2024/03/17 00:53:51;;;;;;;6.40;4.05;;;13.00;99.90;;;;;;10032150;28;20022;-72
2024/03/17 00:58:44;;;;;;;6.35;4.28;;;13.00;99.90;;;;;;10015350;28;20072;-72
2024/03/17 01:03:34;;;;;;;5.65;3.97;;;13.00;99.90;;;;;;10016940;28;20107;-72
2024/03/17 01:08:25;;;;;;;6.35;4.35;;;13.00;99.90;;;;;;10018575;28;20476;-72
2024/03/17 01:13:17;;;;;;;6.15;3.80;;;13.00;99.90;;;;;;10009267;28;20496;-72
2024/03/17 01:18:08;;;;;;;5.97;4.13;;;13.00;99.90;;;;;;10036614;28;20115;-71
2024/03/17 01:22:58;;;;;;;6.43;3.80;;;13.00;99.90;;;;;;10008182;28;20025;-72
2024/03/17 01:27:49;;;;;;;6.53;3.70;;;12.90;99.90;;;;;;10015110;28;20025;-71
2024/03/17 01:32:40;;;;;;;5.93;4.05;;;13.00;99.90;;;;;;10011885;28;20037;-72
2024/03/17 01:37:31;;;;;;;7.45;4.28;;;12.90;99.90;;;;;;10024098;28;20037;-73
2024/03/17 01:42:22;;;;;;;7.28;4.32;;;12.80;99.90;;;;;;10026402;28;21273;-72
2024/03/17 01:47:13;;;;;;;6.75;4.10;;;12.60;99.90;;;;;;10015546;28;20026;-73
2024/03/17 01:52:05;;;;;;;5.00;3.22;;;12.60;99.90;;;;;;10016571;28;20446;-72
2024/03/17 01:56:56;;;;;;;6.22;3.80;;;12.50;99.90;;;;;;10015060;28;20096;-73
2024/03/17 02:01:46;;;;;;;4.88;3.53;;;12.40;99.90;;;;;;10017341;28;20092;-73
2024/03/17 02:06:37;;;;;;;7.75;3.50;;;12.40;99.90;;;;;;10013657;28;20100;-74
2024/03/17 02:11:32;;;;;;;5.18;2.97;;;12.30;99.90;;;;;;10018746;28;20034;-73
2024/03/17 02:16:23;;;;;;;5.75;3.40;;;12.40;99.90;;;;;;10013578;28;20027;-73
2024/03/17 02:21:15;;;;;;;6.55;3.85;;;12.30;99.90;;;;;;10017315;28;20415;-72
2024/03/17 02:26:05;;;;;;;6.68;3.35;;;12.40;99.90;;;;;;10032050;28;20030;-72
2024/03/17 02:30:56;;;;;;;7.45;3.83;;;12.40;99.90;;;;;;10026190;28;20119;-73
2024/03/17 02:35:47;;;;;;;5.35;2.90;;;12.30;99.90;;;;;;10031185;28;20636;-73
2024/03/17 02:40:38;;;;;;;6.47;3.88;;;12.30;99.90;;;;;;10022423;28;20060;-73
2024/03/17 02:45:29;;;;;;;8.38;4.25;;;12.30;99.90;;;;;;10021991;28;20053;-73
2024/03/17 02:50:20;;;;;;;4.93;3.67;;;12.30;99.90;;;;;;10031531;28;20038;-72
2024/03/17 02:55:10;;;;;;;6.10;3.53;;;12.20;99.90;;;;;;10036124;28;20526;-73
2024/03/17 03:00:04;;;;;;;5.78;4.15;;;12.20;99.90;;;;;;10030094;28;20045;-73
2024/03/17 03:04:55;;;;;;;5.65;4.22;;;12.20;99.90;;;;;;10024335;28;20705;-73
2024/03/17 03:09:45;;;;;;;4.50;3.25;;;12.10;99.90;;;;;;10046463;28;20033;-73
2024/03/17 03:14:36;;;;;;;5.15;3.10;;;12.10;99.90;;;;;;10048294;28;20026;-71
2024/03/17 03:19:27;;;;;;;5.18;3.33;;;12.00;99.90;;;;;;10027806;28;20176;-73
2024/03/17 03:24:18;;;;;;;7.50;3.30;;;12.00;99.90;;;;;;10019375;28;20110;-73
2024/03/17 03:29:10;;;;;;;5.10;3.10;;;11.90;99.90;;;;;;10018837;28;20030;-73
2024/03/17 03:34:01;;;;;;;5.53;3.20;;;11.80;99.90;;;;;;10019880;28;20113;-74
2024/03/17 03:38:52;;;;;;;5.63;3.60;;;11.80;99.90;;;;;;10019088;28;20061;-73
2024/03/17 03:43:43;;;;;;;5.25;3.40;;;11.70;99.90;;;;;;10024485;28;20042;-74
2024/03/17 03:48:36;;;;;;;4.43;3.03;;;11.60;99.90;;;;;;10036627;28;20030;-73
2024/03/17 03:53:27;;;;;;;5.30;3.25;;;11.70;99.90;;;;;;10042989;28;20033;-73
2024/03/17 03:58:17;;;;;;;5.10;2.92;;;11.70;99.90;;;;;;10041559;28;20075;-73
2024/03/17 04:03:08;;;;;;;5.32;3.38;;;11.70;99.90;;;;;;10032138;28;20026;-72
2024/03/17 04:07:59;;;;;;;6.35;3.38;;;11.70;99.90;;;;;;10018367;28;20029;-73
2024/03/17 04:12:50;;;;;;;5.97;3.25;;;11.60;99.90;;;;;;10026481;28;20036;-72
2024/03/17 04:17:42;;;;;;;4.22;2.95;;;11.70;99.90;;;;;;10025203;28;20095;-73
2024/03/17 04:22:32;;;;;;;5.97;3.13;;;11.60;99.90;;;;;;10040282;28;20025;-72
2024/03/17 04:27:23;;;;;;;4.68;2.83;;;11.50;99.90;;;;;;10032265;28;20391;-72
2024/03/17 04:32:14;;;;;;;4.45;3.58;;;11.40;99.90;;;;;;10021782;28;20438;-73
2024/03/17 04:37:05;;;;;;;6.95;2.97;;;11.30;99.90;;;;;;10027478;28;20108;-72
2024/03/17 04:41:55;;;;;;;4.97;3.35;;;11.30;99.90;;;;;;10018015;28;20432;-72
2024/03/17 04:46:46;;;;;;;5.47;3.35;;;11.20;99.90;;;;;;10014159;28;20034;-72
2024/03/17 04:51:36;;;;;;;6.72;3.00;;;11.20;99.90;;;;;;10019570;28;20506;-73
2024/03/17 04:56:28;;;;;;;5.10;2.70;;;11.30;99.90;;;;;;10019739;28;20029;-74
2024/03/17 05:01:19;;;;;;;7.90;2.95;;;11.20;99.90;;;;;;10016305;28;20030;-73
2024/03/17 05:06:10;;;;;;;4.00;2.50;;;11.20;99.90;;;;;;10018240;28;20074;-72
2024/03/17 05:11:05;;;;;;;4.00;2.22;;;11.30;99.90;;;;;;10017846;28;20091;-72
2024/03/17 05:15:56;;;;;;;4.63;2.90;;;11.20;99.90;;;;;;10019540;28;20034;-73
2024/03/17 05:20:49;;;;;;;4.03;2.80;;;11.20;99.90;;;;;;10017742;28;20312;-73
2024/03/17 05:25:40;;;;;;;3.97;2.78;;;11.20;99.90;;;;;;10016763;28;20547;-72
2024/03/17 05:30:31;;;;;;;9.73;2.90;;;11.10;99.90;;;;;;10014954;28;20125;-72
2024/03/17 05:35:22;;;;;;;4.57;2.75;;;11.00;99.90;;;;;;10014595;28;20515;-72
2024/03/17 05:40:12;;;;;;;3.92;2.92;;;11.00;99.90;;;;;;10014195;28;20046;-73
2024/03/17 05:45:04;;;;;;;3.92;2.78;;;11.00;99.90;;;;;;10012879;28;20459;-72
2024/03/17 05:49:55;;;;;;;4.15;2.60;;;11.00;99.90;;;;;;10016451;28;20565;-73
2024/03/17 05:54:46;;;;;;;6.05;2.80;;;11.00;99.90;;;;;;10018868;28;20052;-73
2024/03/17 05:59:36;;;;;;;4.25;2.83;;;11.00;99.90;;;;;;10025633;28;20538;-73
2024/03/17 06:04:27;;;;;;;4.55;3.10;;;10.90;99.90;;;;;;10022926;28;20040;-72
2024/03/17 06:09:19;;;;;;;4.47;3.13;;;10.90;99.90;;;;;;10025281;28;20022;-72
2024/03/17 06:14:12;;;;;;;5.22;3.05;;;10.90;99.90;;;;;;10027116;28;20037;-72
2024/03/17 06:19:03;;;;;;;4.63;3.33;;;10.90;99.90;;;;;;10028809;28;20045;-73
2024/03/17 06:23:54;;;;;;;6.05;2.70;;;11.00;99.90;;;;;;10021936;28;20030;-72
2024/03/17 06:28:45;;;;;;;4.65;3.13;;;11.00;99.90;;;;;;10028523;28;20033;-74
2024/03/17 06:33:35;;;;;;;3.53;2.70;;;11.00;99.90;;;;;;10025605;28;20018;-74
2024/03/17 06:38:26;;;;;;;4.93;2.78;;;10.90;99.90;;;;;;10026733;28;20030;-74
2024/03/17 06:43:17;;;;;;;3.70;2.58;;;10.90;99.90;;;;;;10024352;28;20045;-73
2024/03/17 06:48:08;;;;;;;5.95;2.97;;;10.90;99.90;;;;;;10028373;28;20022;-73
2024/03/17 06:52:58;;;;;;;4.60;2.95;;;10.90;99.90;;;;;;10032999;28;20109;-73
2024/03/17 06:57:49;;;;;;;5.50;3.42;;;10.90;99.90;;;;;;10035134;28;20110;-73
2024/03/17 07:02:44;;;;;;;4.90;3.05;;;11.00;99.90;;;;;;10040799;28;20522;-73
2024/03/17 07:07:34;;;;;;;4.07;3.03;;;11.00;99.90;;;;;;10045464;28;20076;-73
2024/03/17 07:12:25;;;;;;;5.03;3.22;;;11.00;99.90;;;;;;10015608;28;20083;-72
2024/03/17 07:17:16;;;;;;;4.65;2.75;;;10.90;99.90;;;;;;10026544;28;20476;-73
2024/03/17 07:22:07;;;;;;;4.78;3.55;;;10.80;99.90;;;;;;10021793;28;20156;-73
2024/03/17 07:26:58;;;;;;;3.83;3.08;;;10.80;99.90;;;;;;10023096;28;20034;-72
2024/03/17 07:31:49;;;;;;;5.70;3.00;;;11.00;99.90;;;;;;10020086;28;20117;-72
2024/03/17 07:36:39;;;;;;;6.05;3.28;;;11.00;99.90;;;;;;10029468;22;20058;-70
2024/03/17 07:41:30;;;;;;;6.13;3.20;;;11.20;99.90;;;;;;10019078;28;20044;-72
2024/03/17 07:46:21;;;;;;;5.03;3.90;;;11.30;99.90;;;;;;10015201;28;20029;-72
2024/03/17 07:51:13;;;;;;;5.30;3.10;;;11.20;99.90;;;;;;10024553;28;20026;-71
2024/03/17 07:56:06;;;;;;;7.03;3.60;;;11.10;99.90;;;;;;10017956;28;20041;-71
2024/03/17 08:01:01;;;;;;;7.20;4.03;;;11.20;99.90;;;;;;10027351;28;20125;-71
2024/03/17 08:05:52;;;;;;;6.68;4.03;;;11.30;99.90;;;;;;10017593;28;20026;-71
2024/03/17 08:10:43;;;;;;;4.88;3.42;;;11.20;99.90;;;;;;10018480;28;20096;-71
2024/03/17 08:15:33;;;;;;;5.30;3.28;;;11.20;99.90;;;;;;10018395;28;20038;-71
2024/03/17 08:20:24;;;;;;;5.18;3.75;;;11.20;99.90;;;;;;10033421;28;20042;-70
2024/03/17 08:25:15;;;;;;;6.70;3.63;;;11.30;99.90;;;;;;10014976;28;20048;-72
2024/03/17 08:30:09;;;;;;;6.20;3.88;;;11.30;99.90;;;;;;10019097;28;20530;-72
2024/03/17 08:35:00;;;;;;;4.32;3.15;;;11.40;99.90;;;;;;10018004;28;20032;-72
2024/03/17 08:39:52;;;;;;;5.25;3.78;;;11.50;99.90;;;;;;10016821;28;20134;-71
2024/03/17 08:44:46;;;;;;;7.90;4.38;;;11.60;99.90;;;;;;10016506;28;20064;-71
2024/03/17 08:49:37;;;;;;;6.18;3.35;;;11.80;99.90;;;;;;10020568;28;20038;-71
2024/03/17 08:54:28;;;;;;;8.18;4.35;;;11.80;99.90;;;;;;10016434;28;20022;-71
2024/03/17 08:59:18;;;;;;;6.22;4.20;;;11.90;99.90;;;;;;10014254;28;20091;-72
2024/03/17 09:04:11;;;;;;;6.88;3.88;;;11.90;99.90;;;;;;10017821;28;20030;-71
2024/03/17 09:09:02;;;;;;;7.63;4.85;;;12.00;99.90;;;;;;10017256;28;20026;-71
2024/03/17 09:13:54;;;;;;;5.90;3.85;;;12.10;99.90;;;;;;10016117;28;20018;-72
2024/03/17 09:18:45;;;;;;;6.75;3.97;;;12.10;99.90;;;;;;10025598;28;20116;-71
2024/03/17 09:23:38;;;;;;;8.50;4.90;;;12.20;99.90;;;;;;10014721;28;20593;-73
2024/03/17 09:28:29;;;;;;;6.13;3.90;;;12.20;99.90;;;;;;10015852;28;20022;-71
2024/03/17 09:33:21;;;;;;;7.40;4.10;;;12.30;99.90;;;;;;10019132;28;20376;-71
2024/03/17 09:38:12;;;;;;;6.40;4.30;;;12.30;99.90;;;;;;10016377;28;20097;-72
2024/03/17 09:43:03;;;;;;;6.88;4.32;;;12.40;99.90;;;;;;10018841;28;20092;-72
2024/03/17 09:47:54;;;;;;;8.93;4.35;;;12.40;99.90;;;;;;10024062;28;20570;-72
2024/03/17 09:52:45;;;;;;;6.25;3.60;;;12.50;99.90;;;;;;10025248;28;20042;-72
2024/03/17 09:57:43;;;;;;;6.20;3.83;;;12.60;99.90;;;;;;10013855;28;20026;-71
2024/03/17 10:02:33;;;;;;;6.50;4.65;;;12.60;99.90;;;;;;10010408;28;20029;-73
2024/03/17 10:07:39;;;;;;;5.38;3.97;;;12.60;99.90;;;;;;10010707;28;20080;-72
2024/03/17 10:12:30;;;;;;;7.30;4.70;;;12.70;99.90;;;;;;10014045;28;20037;-71
2024/03/17 10:17:31;;;;;;;6.45;3.67;;;12.70;99.90;;;;;;10011818;28;20101;-71
2024/03/17 10:22:22;;;;;;;4.88;4.03;;;12.80;99.90;;;;;;10029765;28;20077;-71
2024/03/17 10:27:12;;;;;;;7.43;4.07;;;12.90;99.90;;;;;;10021736;28;20458;-72
2024/03/17 10:32:14;;;;;;;7.18;4.38;;;13.00;99.90;;;;;;10010175;28;20038;-72
2024/03/17 10:37:14;;;;;;;9.35;5.03;;;13.00;99.90;;;;;;10014262;28;20085;-71
2024/03/17 10:42:07;;;;;;;7.45;4.45;;;13.10;99.90;;;;;;10019295;28;20522;-72
2024/03/17 10:47:01;;;;;;;8.15;4.00;;;13.20;99.90;;;;;;10018574;28;20032;-71
2024/03/17 10:51:57;;;;;;;6.65;3.80;;;13.20;99.90;;;;;;10021494;28;20044;-71
2024/03/17 10:56:48;;;;;;;4.90;3.80;;;13.20;99.90;;;;;;10026248;28;20177;-72
2024/03/17 11:01:40;;;;;;;8.50;4.22;;;13.20;99.90;;;;;;10022075;28;20942;-73
2024/03/17 11:06:31;;;;;;;6.03;3.65;;;13.30;99.90;;;;;;10021108;28;20104;-70
2024/03/17 11:11:42;;;;;;;6.53;3.97;;;13.30;99.90;;;;;;10021981;28;20581;-71
2024/03/17 11:16:33;;;;;;;6.75;3.95;;;13.40;99.90;;;;;;10018536;28;20026;-72
2024/03/17 11:21:25;;;;;;;6.53;3.72;;;13.40;99.90;;;;;;10021950;28;20034;-71
2024/03/17 11:26:30;;;;;;;6.20;4.20;;;13.50;99.90;;;;;;10023347;28;20022;-72
2024/03/17 11:31:42;;;;;;;6.45;4.13;;;13.60;99.90;;;;;;10017946;28;20563;-72
2024/03/17 11:36:38;;;;;;;7.10;4.22;;;13.60;99.90;;;;;;10019610;28;20096;-72
2024/03/17 11:41:47;;;;;;;7.32;3.65;;;13.70;99.90;;;;;;10031380;28;20121;-72
2024/03/17 11:46:38;;;;;;;8.18;4.13;;;13.70;99.90;;;;;;10017903;28;20037;-72
2024/03/17 11:51:29;;;;;;;4.97;3.20;;;13.70;99.90;;;;;;10024867;28;20061;-72
2024/03/17 11:56:23;;;;;;;46.50;24.80;;;13.80;99.90;;;;;;10006243;28;20032;-73
2024/03/17 12:01:14;;;;;;;14.32;8.32;;;13.90;99.90;;;;;;10007083;28;20052;-71
2024/03/17 12:06:05;;;;;;;7.32;3.70;;;13.80;99.90;;;;;;10029622;28;20022;-72
2024/03/17 12:10:55;;;;;;;6.78;3.85;;;13.80;99.90;;;;;;10004474;28;20033;-73
2024/03/17 12:15:46;;;;;;;5.38;3.72;;;13.90;99.90;;;;;;10009503;28;20030;-71
2024/03/17 12:20:38;;;;;;;7.32;4.18;;;13.90;99.90;;;;;;10008908;28;20704;-68
2024/03/17 12:25:29;;;;;;;5.15;3.63;;;14.00;99.90;;;;;;10009880;28;20154;-72
2024/03/17 12:30:21;;;;;;;6.00;2.90;;;14.00;99.90;;;;;;9999083;28;20589;-71
2024/03/17 12:35:14;;;;;;;6.05;2.80;;;14.00;99.90;;;;;;10014975;28;20018;-67
2024/03/17 12:40:18;;;;;;;4.80;2.92;;;14.00;99.90;;;;;;10011927;28;20038;-70
2024/03/17 12:45:10;;;;;;;4.30;2.10;;;14.00;99.90;;;;;;10023106;28;20029;-69
2024/03/17 12:50:05;;;;;;;5.82;3.13;;;14.10;99.90;;;;;;10009463;28;20607;-70
2024/03/17 13:00:36;;;;;;;71.57;34.60;;;14.20;99.90;;;;;;10015780;28;20437;-69
2024/03/17 13:05:26;;;;;;;33.97;18.08;;;14.30;99.90;;;;;;10015732;28;20605;-70
2024/03/17 13:10:19;;;;;;;7.95;4.28;;;14.40;99.90;;;;;;10020208;28;20038;-70
2024/03/17 13:15:14;;;;;;;4.03;3.00;;;14.40;99.90;;;;;;10023308;28;20026;-69
2024/03/17 13:20:11;;;;;;;6.38;3.22;;;14.40;99.90;;;;;;10016199;28;20053;-69
2024/03/17 13:25:02;;;;;;;3.78;2.67;;;14.40;99.90;;;;;;10014867;28;20028;-69
2024/03/17 13:29:53;;;;;;;3.50;2.45;;;14.50;99.90;;;;;;10016506;28;20556;-69
2024/03/17 13:34:44;;;;;;;4.40;2.58;;;14.60;99.90;;;;;;10014367;28;20029;-69
2024/03/17 13:39:35;;;;;;;4.57;2.85;;;14.60;99.90;;;;;;10015542;28;20052;-69
2024/03/17 13:44:26;;;;;;;4.03;2.55;;;14.70;99.90;;;;;;10016312;28;20025;-70
2024/03/17 13:49:17;;;;;;;5.25;3.10;;;14.90;99.90;;;;;;10026372;28;20042;-71
2024/03/17 13:54:08;;;;;;;3.63;2.42;;;15.00;99.90;;;;;;10013776;28;20026;-69
2024/03/17 13:58:58;;;;;;;5.47;2.50;;;15.20;99.90;;;;;;10017133;28;20037;-71
2024/03/17 14:03:49;;;;;;;4.25;2.08;;;15.40;99.90;;;;;;10016954;28;20022;-69
2024/03/17 14:08:40;;;;;;;4.07;2.00;;;15.50;99.90;;;;;;10017278;28;20034;-70
2024/03/17 14:13:31;;;;;;;2.92;1.98;;;15.40;99.90;;;;;;10013622;28;20036;-69
2024/03/17 14:18:22;;;;;;;2.20;1.40;;;15.30;99.90;;;;;;10030742;28;20052;-69
2024/03/17 14:23:13;;;;;;;4.55;2.38;;;15.30;99.90;;;;;;10028193;28;20032;-69
2024/03/17 14:28:04;;;;;;;4.20;2.15;;;15.10;99.90;;;;;;10023353;28;20040;-69
2024/03/17 14:32:55;;;;;;;7.32;2.20;;;15.10;99.90;;;;;;10020277;28;20137;-69
2024/03/17 14:37:51;;;;;;;5.13;2.78;;;15.00;99.90;;;;;;10021771;28;20049;-69
2024/03/17 14:42:42;;;;;;;4.57;2.38;;;15.00;99.90;;;;;;10020354;28;20366;-68
2024/03/17 14:47:32;;;;;;;2.50;1.60;;;15.00;99.90;;;;;;10017980;28;20388;-68
2024/03/17 14:52:24;;;;;;;3.25;1.67;;;14.90;99.90;;;;;;10019637;28;20033;-68
2024/03/17 14:57:17;;;;;;;3.95;1.83;;;15.00;99.90;;;;;;10025488;28;20037;-70
2024/03/17 15:02:09;;;;;;;2.95;2.50;;;15.00;99.90;;;;;;10022464;28;20038;-69
2024/03/17 15:06:59;;;;;;;3.53;2.22;;;15.00;99.90;;;;;;10022326;28;20026;-70
2024/03/17 15:11:51;;;;;;;3.92;2.33;;;15.10;99.90;;;;;;10018873;28;20108;-68
2024/03/17 15:16:42;;;;;;;5.90;2.45;;;15.10;99.90;;;;;;10020408;28;20034;-70
2024/03/17 15:21:35;;;;;;;6.15;2.08;;;15.10;99.90;;;;;;10022394;28;20063;-69
2024/03/17 15:26:26;;;;;;;7.03;2.63;;;15.10;99.90;;;;;;10019962;28;20034;-69
2024/03/17 15:31:17;;;;;;;3.28;1.83;;;15.00;99.90;;;;;;10019128;28;20615;-69
2024/03/17 15:36:08;;;;;;;3.05;1.92;;;15.00;99.90;;;;;;10019824;28;20041;-68
2024/03/17 15:41:06;;;;;;;3.10;1.80;;;15.10;99.90;;;;;;10030240;28;20049;-68
2024/03/17 15:45:57;;;;;;;3.15;1.83;;;15.10;99.90;;;;;;10019186;28;20103;-69
2024/03/17 15:50:57;;;;;;;2.30;1.92;;;15.10;99.90;;;;;;10019852;28;20523;-69
2024/03/17 15:55:54;;;;;;;5.22;1.70;;;15.10;99.90;;;;;;10013344;28;20026;-69
2024/03/17 16:00:45;;;;;;;2.85;1.50;;;15.10;99.90;;;;;;10016650;28;20590;-69
2024/03/17 16:05:36;;;;;;;3.55;1.98;;;15.10;99.90;;;;;;10018414;28;20052;-68
2024/03/17 16:10:28;;;;;;;4.53;1.50;;;15.10;99.90;;;;;;10017575;28;20068;-69
2024/03/17 16:15:20;;;;;;;5.28;2.08;;;15.00;99.90;;;;;;10018561;28;20069;-69
2024/03/17 16:20:46;;;;;;;2.03;1.20;;;15.00;99.90;;;;;;10018669;28;20049;-69
2024/03/17 16:25:37;;;;;;;5.88;2.17;;;15.00;99.90;;;;;;10011526;28;20030;-69
2024/03/17 16:30:28;;;;;;;5.60;1.67;;;15.00;99.90;;;;;;10017846;28;20084;-68
2024/03/17 16:35:19;;;;;;;6.07;2.70;;;15.00;99.90;;;;;;10015100;28;20053;-69
2024/03/17 16:40:10;;;;;;;5.63;2.13;;;15.00;99.90;;;;;;10022638;28;20084;-68
2024/03/17 16:45:05;;;;;;;2.80;1.58;;;15.00;99.90;;;;;;10024027;28;20346;-70
2024/03/17 16:49:58;;;;;;;2.90;1.60;;;15.00;99.90;;;;;;10023425;28;20033;-69
2024/03/17 16:54:50;;;;;;;3.55;1.90;;;15.00;99.90;;;;;;10021401;28;20040;-69
2024/03/17 16:59:41;;;;;;;5.03;1.90;;;15.00;99.90;;;;;;10016150;28;20566;-69
2024/03/17 17:04:32;;;;;;;5.85;2.35;;;15.00;99.90;;;;;;10031042;28;20060;-68
2024/03/17 17:09:25;;;;;;;3.60;2.10;;;15.00;99.90;;;;;;10006711;28;20065;-67
2024/03/17 17:14:16;;;;;;;5.45;2.70;;;14.90;99.90;;;;;;10012785;28;20088;-67
2024/03/17 17:19:10;;;;;;;4.55;1.70;;;14.90;99.90;;;;;;10024154;28;20037;-66
2024/03/17 17:24:03;;;;;;;6.13;1.65;;;15.00;99.90;;;;;;10009112;28;20092;-67
2024/03/17 17:28:59;;;;;;;5.20;1.42;;;14.90;99.90;;;;;;10012862;28;20042;-68
2024/03/17 17:33:50;;;;;;;6.13;2.15;;;14.90;99.90;;;;;;10008930;28;20052;-67
2024/03/17 17:38:41;;;;;;;4.53;1.77;;;14.90;99.90;;;;;;10016656;28;20057;-67
2024/03/17 17:43:33;;;;;;;3.55;1.65;;;14.90;99.90;;;;;;10015296;28;20026;-67
2024/03/17 17:48:23;;;;;;;3.17;1.65;;;14.90;99.90;;;;;;10016941;28;20034;-67
2024/03/17 17:53:14;;;;;;;6.13;1.80;;;14.90;99.90;;;;;;10026313;28;20128;-68
2024/03/17 17:58:05;;;;;;;6.18;1.85;;;14.90;99.90;;;;;;10024037;28;20049;-65
2024/03/17 18:02:55;;;;;;;4.28;2.33;;;14.90;99.90;;;;;;10025195;28;20041;-67
2024/03/17 18:07:46;;;;;;;2.55;2.10;;;14.90;99.90;;;;;;10026728;28;20033;-67
2024/03/17 18:12:36;;;;;;;4.57;2.53;;;14.90;99.90;;;;;;10026969;28;20463;-67
2024/03/17 18:17:27;;;;;;;2.85;1.85;;;14.90;99.90;;;;;;10024301;28;20592;-69
2024/03/17 18:22:18;;;;;;;6.60;2.97;;;14.90;99.90;;;;;;10035703;28;20046;-66
2024/03/17 18:27:08;;;;;;;6.82;3.35;;;14.90;99.90;;;;;;10016484;28;20064;-68
2024/03/17 18:32:01;;;;;;;8.05;3.85;;;14.80;99.90;;;;;;10021163;28;20038;-68
2024/03/17 18:36:51;;;;;;;8.18;3.00;;;14.80;99.90;;;;;;10021978;28;20475;-67
2024/03/17 18:41:42;;;;;;;5.50;3.03;;;14.70;99.90;;;;;;10023853;28;20080;-66
2024/03/17 18:46:33;;;;;;;5.68;2.78;;;14.80;99.90;;;;;;10010668;28;20022;-67
2024/03/17 18:51:23;;;;;;;6.47;2.58;;;14.80;99.90;;;;;;10021995;28;20030;-66
2024/03/17 18:56:14;;;;;;;5.38;3.28;;;14.80;99.90;;;;;;10028525;28;20025;-67
2024/03/17 19:01:05;;;;;;;6.00;3.50;;;14.80;99.90;;;;;;10021238;28;20046;-67
2024/03/17 19:06:18;;;;;;;7.07;3.60;;;14.80;99.90;;;;;;10036589;28;20524;-65
2024/03/17 19:11:13;;;;;;;4.82;3.00;;;14.80;99.90;;;;;;10018551;28;20033;-65
2024/03/17 19:16:05;;;;;;;4.80;3.30;;;14.70;99.90;;;;;;10025019;28;20040;-67
2024/03/17 19:21:13;;;;;;;6.72;3.38;;;14.80;99.90;;;;;;10021261;28;20331;-67
2024/03/17 19:26:11;;;;;;;5.50;2.95;;;14.80;99.90;;;;;;10020503;28;20862;-70
2024/03/17 19:31:05;;;;;;;8.10;3.13;;;14.70;99.90;;;;;;10027737;28;20029;-69
2024/03/17 19:35:56;;;;;;;5.97;3.38;;;14.70;99.90;;;;;;10007251;28;20097;-67
2024/03/17 19:40:56;;;;;;;8.13;5.22;;;14.70;99.90;;;;;;10007128;28;20148;-67
2024/03/17 19:45:56;;;;;;;163.23;84.93;;;14.70;99.90;;;;;;10010174;28;20041;-71
2024/03/17 19:50:46;;;;;;;62.50;30.83;;;14.70;99.90;;;;;;10009194;28;20079;-67
2024/03/17 19:55:37;;;;;;;14.45;8.55;;;14.80;99.90;;;;;;10019754;28;20034;-68
2024/03/17 20:00:28;;;;;;;12.68;5.05;;;14.70;99.90;;;;;;10019479;28;20165;-67
2024/03/17 20:05:18;;;;;;;8.65;4.30;;;14.70;99.90;;;;;;10001112;28;20034;-68
2024/03/17 20:10:11;;;;;;;9.02;4.90;;;14.70;99.90;;;;;;10014252;28;20548;-67
2024/03/17 20:15:05;;;;;;;6.65;2.97;;;14.70;99.90;;;;;;10009719;28;20480;-67
2024/03/17 20:19:55;;;;;;;7.68;3.75;;;14.70;99.90;;;;;;9993670;28;20038;-69
2024/03/17 20:24:46;;;;;;;14.27;5.53;;;14.60;99.90;;;;;;10005824;28;20113;-66
2024/03/17 20:29:37;;;;;;;8.52;3.80;;;14.70;99.90;;;;;;10009076;28;20138;-68
2024/03/17 20:34:28;;;;;;;6.97;3.70;;;14.70;99.90;;;;;;10011046;28;20481;-66
2024/03/17 20:39:18;;;;;;;7.15;3.67;;;14.70;99.90;;;;;;10010379;28;20050;-66
2024/03/17 20:44:09;;;;;;;4.82;3.00;;;14.70;99.90;;;;;;10010115;28;20049;-68
2024/03/17 20:49:00;;;;;;;5.70;3.65;;;14.70;99.90;;;;;;10005802;28;20041;-68
2024/03/17 20:53:51;;;;;;;5.90;3.13;;;14.70;99.90;;;;;;10015539;28;20022;-68
2024/03/17 20:58:44;;;;;;;77.50;36.58;;;14.70;99.90;;;;;;10006643;28;20099;-67
2024/03/17 21:03:34;;;;;;;16.75;8.98;;;14.70;99.90;;;;;;10005790;28;20037;-68
2024/03/17 21:08:25;;;;;;;5.80;3.60;;;14.60;99.90;;;;;;10006526;28;20203;-69
2024/03/17 21:13:15;;;;;;;10.02;4.35;;;14.60;99.90;;;;;;10006688;28;20031;-68
2024/03/17 21:18:06;;;;;;;8.65;4.07;;;14.50;99.90;;;;;;10005627;28;20037;-68
2024/03/17 21:22:58;;;;;;;6.60;2.97;;;14.40;99.90;;;;;;9998396;28;20671;-67
2024/03/17 21:27:50;;;;;;;4.68;3.15;;;14.40;99.90;;;;;;10014906;28;20022;-69
2024/03/17 21:32:41;;;;;;;3.53;2.20;;;14.30;99.90;;;;;;10015693;28;20037;-68
2024/03/17 21:37:39;;;;;;;5.05;3.13;;;14.30;99.90;;;;;;10017986;28;20054;-68
2024/03/17 21:42:29;;;;;;;7.22;3.53;;;14.30;99.90;;;;;;10016533;28;20034;-69
2024/03/17 21:47:20;;;;;;;6.72;3.53;;;14.30;99.90;;;;;;10013702;28;20757;-67
2024/03/17 21:52:11;;;;;;;7.50;3.53;;;14.30;99.90;;;;;;10000378;28;20113;-68
2024/03/17 21:57:02;;;;;;;7.15;3.50;;;14.30;99.90;;;;;;9999091;28;20030;-69
2024/03/17 22:01:53;;;;;;;7.30;3.50;;;14.30;99.90;;;;;;10002134;28;20033;-68
2024/03/17 22:06:43;;;;;;;7.90;3.88;;;14.30;99.90;;;;;;10005015;28;20018;-67
2024/03/17 22:11:34;;;;;;;7.35;3.53;;;14.20;99.90;;;;;;10006082;28;20026;-67
2024/03/17 22:16:25;;;;;;;4.43;2.90;;;14.30;99.90;;;;;;10008064;28;20018;-68
2024/03/17 22:21:16;;;;;;;10.65;4.47;;;14.20;99.90;;;;;;10007476;28;20043;-67
2024/03/17 22:26:06;;;;;;;3.97;3.00;;;14.20;99.90;;;;;;10006863;28;20049;-67
2024/03/17 22:30:59;;;;;;;5.70;3.17;;;14.30;99.90;;;;;;10007549;28;20024;-68
2024/03/17 22:35:56;;;;;;;6.43;3.50;;;14.20;99.90;;;;;;10001723;28;20042;-67
2024/03/17 22:41:05;;;;;;;5.47;3.25;;;14.20;99.90;;;;;;10013342;28;20128;-68
2024/03/17 22:45:57;;;;;;;7.55;3.58;;;14.20;99.90;;;;;;10020043;28;20036;-65
2024/03/17 22:50:49;;;;;;;81.95;43.13;;;14.20;99.90;;;;;;10013732;28;20119;-67
2024/03/17 22:55:40;;;;;;;33.17;18.15;;;14.20;99.90;;;;;;10008555;28;20045;-66
2024/03/17 23:00:41;;;;;;;13.98;7.72;;;14.20;99.90;;;;;;10016187;28;20172;-67
2024/03/17 23:05:33;;;;;;;7.95;5.40;;;14.20;99.90;;;;;;10013748;28;20106;-68
2024/03/17 23:10:24;;;;;;;7.82;4.50;;;14.20;99.90;;;;;;10020231;28;20062;-66
2024/03/17 23:15:15;;;;;;;9.25;5.28;;;14.20;99.90;;;;;;10017218;28;20053;-68
2024/03/17 23:20:08;;;;;;;8.07;5.05;;;14.10;99.90;;;;;;10011139;28;20048;-67
2024/03/17 23:24:59;;;;;;;7.30;4.90;;;14.10;99.90;;;;;;10013751;28;20021;-69
2024/03/17 23:29:50;;;;;;;8.80;4.78;;;14.10;99.90;;;;;;10011546;28;20038;-68
2024/03/17 23:34:41;;;;;;;9.52;4.93;;;14.00;99.90;;;;;;10011798;28;20088;-67
2024/03/17 23:39:31;;;;;;;8.32;5.72;;;14.00;99.90;;;;;;10008268;28;20512;-67
2024/03/17 23:44:22;;;;;;;10.85;4.88;;;14.10;99.90;;;;;;10020477;28;20152;-70
2024/03/17 23:49:13;;;;;;;7.68;5.32;;;14.00;99.90;;;;;;10019599;28;20026;-67
2024/03/17 23:54:03;;;;;;;7.55;4.50;;;14.10;99.90;;;;;;10013527;28;20034;-68
2024/03/17 23:58:54;;;;;;;8.23;4.18;;;14.10;99.90;;;;;;10020105;28;20045;-69
